Terminal Aerodrome Forecast
Issued by NWS

Home | Current Version | Previous Version | Graphics & Text | Print | Product List | Glossary On
Versions: 1 2 3 4 5 6 7 8 9 10 11 12 13 14
000
FTUS43 KOAX 172324
TAFCDR
TAF
KCDR 172324Z 1800/1824 VRB03KT P6SM SKC
     FM180400 VRB04KT 3SM BR OVC008
     FM181600 26008KT P6SM SCT250=

USA.gov is the U.S. government's official web portal to all federal, state and local government web resources and services.